Time;durP1;ratioP1;P1;durP2;ratioP2;P2;SDS_P1;SDS_P2;PMS_P1;PMS_P2;Temp;Humidity;BMP_temperature;BMP_pressure;BME280_temperature;BME280_humidity;BME280_pressure;Samples;Min_cycle;Max_cycle;Signal;HPM_P1;HPM_P2
2022/02/08 00:02:08;;;;;;;5.37;3.10;;;7.70;52.30;;;;;;4992714;28;20500;-45
2022/02/08 00:04:34;;;;;;;11.73;3.40;;;7.30;53.00;;;;;;4990713;28;20226;-46
2022/02/08 00:07:05;;;;;;;7.30;4.10;;;7.20;53.60;;;;;;4981829;28;20505;-46
2022/02/08 00:09:31;;;;;;;4.63;3.43;;;7.20;53.80;;;;;;4985843;28;20245;-47
2022/02/08 00:11:57;;;;;;;7.00;3.30;;;7.20;53.70;;;;;;4992157;28;20446;-47
2022/02/08 00:14:23;;;;;;;2.77;2.50;;;7.10;54.10;;;;;;4988476;28;20442;-48
2022/02/08 00:16:48;;;;;;;9.67;3.73;;;7.00;54.20;;;;;;4983229;28;20865;-48
2022/02/08 00:19:14;;;;;;;7.70;3.20;;;7.00;54.90;;;;;;4991538;28;20278;-50
2022/02/08 00:21:40;;;;;;;5.53;2.97;;;7.00;54.30;;;;;;4984359;28;20234;-46
2022/02/08 00:24:06;;;;;;;7.73;3.10;;;6.90;54.50;;;;;;4990363;28;20223;-47
2022/02/08 00:26:32;;;;;;;11.80;5.73;;;6.90;54.60;;;;;;4988255;28;20202;-51
2022/02/08 00:28:58;;;;;;;8.73;4.43;;;7.00;54.50;;;;;;4983034;28;20504;-49
2022/02/08 00:31:24;;;;;;;7.43;4.30;;;7.10;54.40;;;;;;4982852;28;20202;-50
2022/02/08 00:33:50;;;;;;;6.63;3.70;;;7.30;54.10;;;;;;4982840;28;20225;-46
2022/02/08 00:36:16;;;;;;;4.73;2.90;;;7.40;53.80;;;;;;4986938;28;20198;-47
2022/02/08 00:38:42;;;;;;;5.37;2.90;;;7.40;53.50;;;;;;4989340;28;21271;-47
2022/02/08 00:41:08;;;;;;;4.60;2.50;;;7.40;53.50;;;;;;4988002;28;21074;-49
2022/02/08 00:44:11;;;;;;;5.57;2.57;;;7.30;53.50;;;;;;4981424;28;20218;-48
2022/02/08 00:46:50;;;;;;;6.10;3.40;;;7.40;53.70;;;;;;4983067;28;20565;-50
2022/02/08 00:49:14;;;;;;;4.90;2.40;;;7.20;53.80;;;;;;4990522;28;20482;-47
2022/02/08 00:52:07;;;;;;;3.90;2.20;;;7.30;53.80;;;;;;4983762;28;20541;-48
2022/02/08 00:54:25;;;;;;;6.57;2.57;;;7.40;53.70;;;;;;4983266;28;20457;-47
2022/02/08 00:56:51;;;;;;;6.90;3.40;;;7.40;53.20;;;;;;4984029;28;20437;-47
2022/02/08 00:59:16;;;;;;;3.87;1.97;;;7.40;53.40;;;;;;4986167;28;20542;-46
2022/02/08 01:01:42;;;;;;;7.80;2.70;;;7.50;53.50;;;;;;4989070;28;20198;-49
2022/02/08 01:04:10;;;;;;;2.80;1.87;;;7.50;53.20;;;;;;4980247;28;20222;-50
2022/02/08 01:06:36;;;;;;;6.73;2.40;;;7.30;53.10;;;;;;4981251;28;20629;-46
2022/02/08 01:09:15;;;;;;;5.47;2.60;;;6.80;53.80;;;;;;4988128;28;20850;-50
2022/02/08 01:11:44;;;;;;;2.93;1.83;;;6.80;54.70;;;;;;4982992;28;20459;-47
2022/02/08 01:14:10;;;;;;;4.37;2.30;;;7.00;54.90;;;;;;4990493;28;20567;-50
2022/02/08 01:16:35;;;;;;;5.10;2.90;;;7.20;54.50;;;;;;4980542;28;20449;-45
2022/02/08 01:19:03;;;;;;;8.17;3.23;;;7.00;54.30;;;;;;4985012;28;20504;-47
2022/02/08 01:21:31;;;;;;;6.43;3.00;;;7.00;54.40;;;;;;4978600;28;20634;-45
2022/02/08 01:23:57;;;;;;;5.97;2.70;;;7.10;54.70;;;;;;4985875;28;20879;-49
2022/02/08 01:26:23;;;;;;;4.07;2.37;;;7.30;54.40;;;;;;4987797;28;20476;-47
2022/02/08 01:31:23;;;;;;;9.40;2.70;;;7.20;54.20;;;;;;4986520;28;20190;-47
2022/02/08 01:36:39;;;;;;;6.10;2.33;;;7.20;54.20;;;;;;4983351;28;20470;-47
2022/02/08 01:44:27;;;;;;;6.90;2.60;;;7.00;54.60;;;;;;4981935;28;20489;-45
2022/02/08 01:51:51;;;;;;;5.90;4.07;;;7.30;54.30;;;;;;4984391;28;20439;-50
2022/02/08 01:54:16;;;;;;;5.23;2.50;;;7.30;53.70;;;;;;4982471;28;20198;-49
2022/02/08 01:56:42;;;;;;;4.10;2.20;;;7.40;53.80;;;;;;4983097;28;20472;-50
2022/02/08 01:59:08;;;;;;;8.30;2.80;;;7.50;53.60;;;;;;4983441;28;20198;-49
2022/02/08 02:01:34;;;;;;;8.57;2.80;;;7.60;53.20;;;;;;4987694;28;20242;-48
2022/02/08 02:04:00;;;;;;;6.30;2.47;;;7.50;53.10;;;;;;4976860;28;20317;-48
2022/02/08 02:06:26;;;;;;;7.80;2.57;;;7.50;53.20;;;;;;4977483;28;20520;-50
2022/02/08 02:08:51;;;;;;;4.57;2.00;;;7.70;53.20;;;;;;4983366;28;20187;-48
2022/02/08 02:11:17;;;;;;;6.30;2.13;;;7.60;53.00;;;;;;4986875;28;20195;-50
2022/02/08 02:13:47;;;;;;;5.77;2.63;;;7.40;53.50;;;;;;4979158;28;20198;-49
2022/02/08 02:16:18;;;;;;;8.37;2.67;;;7.50;53.70;;;;;;4973094;28;20197;-45
2022/02/08 02:18:43;;;;;;;6.03;2.40;;;7.40;53.80;;;;;;4981628;28;20933;-47
2022/02/08 02:21:09;;;;;;;13.33;3.13;;;7.40;53.80;;;;;;4987966;28;20476;-45
2022/02/08 02:23:35;;;;;;;3.60;2.03;;;7.60;53.70;;;;;;4985651;28;20202;-49
2022/02/08 02:26:00;;;;;;;3.27;2.20;;;7.70;53.40;;;;;;4975650;28;20195;-46
2022/02/08 02:28:27;;;;;;;7.20;1.97;;;7.80;53.10;;;;;;4980958;28;20248;-45
2022/02/08 02:30:53;;;;;;;3.93;2.10;;;7.80;53.10;;;;;;4986824;28;20701;-45
2022/02/08 02:33:18;;;;;;;2.37;1.63;;;7.80;53.20;;;;;;4984288;28;20442;-45
2022/02/08 02:35:46;;;;;;;4.60;2.57;;;7.80;53.50;;;;;;4983875;28;20916;-46
2022/02/08 02:38:12;;;;;;;5.77;2.90;;;7.90;53.00;;;;;;4986426;28;20210;-45
2022/02/08 02:40:44;;;;;;;4.17;2.20;;;7.90;52.90;;;;;;4986845;28;20445;-47
2022/02/08 02:43:10;;;;;;;7.17;2.30;;;7.90;53.00;;;;;;4985765;28;20214;-47
2022/02/08 02:45:36;;;;;;;6.93;2.50;;;8.00;52.90;;;;;;4992756;28;20482;-45
2022/02/08 02:48:02;;;;;;;8.60;3.07;;;8.00;53.00;;;;;;4982520;28;20842;-47
2022/02/08 02:50:28;;;;;;;4.43;3.00;;;8.00;52.80;;;;;;4989452;28;20511;-47
2022/02/08 02:52:53;;;;;;;3.50;1.80;;;7.90;53.00;;;;;;4985311;28;20659;-45
2022/02/08 02:55:19;;;;;;;5.50;2.43;;;7.60;53.40;;;;;;4988867;28;20198;-47
2022/02/08 02:57:49;;;;;;;5.33;2.90;;;7.50;53.80;;;;;;4991146;28;20194;-45
2022/02/08 03:00:39;;;;;;;4.43;2.47;;;7.50;54.00;;;;;;4991350;28;20486;-48
2022/02/08 03:03:31;;;;;;;5.43;2.70;;;7.60;53.80;;;;;;4992200;28;20949;-45
2022/02/08 03:17:24;;;;;;;7.13;2.10;;;7.70;53.90;;;;;;4989766;28;20561;-46
2022/02/08 03:19:38;;;;;;;3.93;2.03;;;7.50;53.60;;;;;;4994219;28;20525;-48
2022/02/08 03:22:04;;;;;;;5.40;1.90;;;7.70;53.80;;;;;;4995962;28;20433;-45
2022/02/08 03:24:29;;;;;;;4.13;2.37;;;7.70;53.50;;;;;;4993087;28;20230;-49
2022/02/08 03:26:55;;;;;;;2.60;1.67;;;7.90;53.50;;;;;;4981435;28;20453;-45
2022/02/08 03:29:21;;;;;;;3.40;2.10;;;7.90;53.10;;;;;;4990244;28;20262;-46
2022/02/08 03:31:46;;;;;;;6.33;2.00;;;8.00;53.10;;;;;;4993692;28;20201;-47
2022/02/08 03:34:12;;;;;;;4.17;1.60;;;7.90;52.90;;;;;;4987644;28;21037;-46
2022/02/08 03:36:37;;;;;;;3.60;2.03;;;8.00;52.90;;;;;;4985616;28;20253;-46
2022/02/08 03:39:25;;;;;;;3.87;1.40;;;8.00;52.80;;;;;;4999809;28;20190;-45
2022/02/08 03:41:54;;;;;;;6.43;2.20;;;8.10;52.80;;;;;;4989963;28;20286;-46
2022/02/08 03:44:30;;;;;;;4.53;2.93;;;8.20;52.40;;;;;;4989725;28;20547;-46
2022/02/08 03:46:56;;;;;;;3.93;1.70;;;8.10;52.40;;;;;;4984229;28;20449;-46
2022/02/08 03:49:22;;;;;;;4.47;2.07;;;8.30;52.70;;;;;;4990468;28;20560;-47
2022/02/08 03:51:54;;;;;;;8.47;2.27;;;8.30;52.50;;;;;;4980728;28;20517;-44
2022/02/08 03:54:20;;;;;;;4.73;1.90;;;8.40;52.10;;;;;;4978166;28;20221;-46
2022/02/08 03:56:46;;;;;;;3.93;1.67;;;8.40;51.80;;;;;;4991719;28;20430;-45
2022/02/08 03:59:13;;;;;;;5.30;1.50;;;8.30;51.90;;;;;;4988674;28;20195;-45
2022/02/08 04:06:52;;;;;;;4.27;1.70;;;8.20;51.80;;;;;;4991066;28;20925;-47
2022/02/08 04:09:18;;;;;;;1.90;1.47;;;8.30;51.80;;;;;;4987372;28;20207;-45
2022/02/08 04:12:24;;;;;;;6.43;1.80;;;8.40;51.80;;;;;;4987594;28;20808;-45
2022/02/08 04:14:57;;;;;;;6.10;1.93;;;8.30;51.70;;;;;;4976831;28;20451;-45
2022/02/08 04:17:40;;;;;;;8.17;2.27;;;8.30;51.90;;;;;;4988152;28;20457;-47
2022/02/08 04:42:05;;;;;;;6.63;2.00;;;8.30;51.20;;;;;;4987558;28;20446;-47
2022/02/08 04:47:22;;;;;;;7.60;1.80;;;8.20;51.60;;;;;;4980425;28;20453;-47
2022/02/08 04:49:47;;;;;;;2.20;1.50;;;8.40;51.50;;;;;;4976151;28;20446;-46
2022/02/08 04:52:15;;;;;;;4.80;1.93;;;8.10;51.30;;;;;;4979818;28;20798;-48
2022/02/08 04:55:00;;;;;;;6.47;2.20;;;8.40;51.50;;;;;;4981391;28;20213;-45
2022/02/08 04:57:33;;;;;;;7.30;2.07;;;8.40;51.40;;;;;;4979584;28;20509;-47
2022/02/08 05:00:17;;;;;;;13.00;2.03;;;8.40;51.20;;;;;;4989075;28;20820;-47
2022/02/08 05:35:42;;;;;;;7.43;2.57;;;8.10;51.10;;;;;;4979245;28;21025;-44
2022/02/08 05:48:51;;;;;;;4.77;1.80;;;8.30;51.20;;;;;;4982657;28;20477;-46
2022/02/08 05:51:20;;;;;;;8.50;3.10;;;8.10;51.30;;;;;;4982334;28;20219;-48
2022/02/08 05:53:47;;;;;;;6.57;2.73;;;8.20;51.70;;;;;;4983093;28;20814;-48
2022/02/08 05:56:16;;;;;;;2.50;1.50;;;8.20;51.20;;;;;;4985194;28;20545;-45
2022/02/08 05:58:46;;;;;;;4.20;1.73;;;8.20;51.60;;;;;;4983094;28;20456;-44
2022/02/08 06:01:12;;;;;;;5.30;1.70;;;8.20;51.70;;;;;;4980562;28;20458;-45
2022/02/08 06:03:38;;;;;;;7.90;2.00;;;8.00;52.00;;;;;;4979869;28;20437;-49
2022/02/08 06:06:04;;;;;;;3.17;1.47;;;8.00;52.00;;;;;;4985258;28;20496;-44
2022/02/08 06:08:30;;;;;;;5.87;1.50;;;8.20;51.90;;;;;;4974261;28;20619;-45
2022/02/08 06:11:02;;;;;;;5.50;1.67;;;8.00;52.10;;;;;;4979479;28;20530;-47
2022/02/08 06:13:28;;;;;;;5.20;1.67;;;8.20;52.00;;;;;;4985798;28;20322;-44
2022/02/08 06:16:01;;;;;;;4.67;1.80;;;8.30;51.90;;;;;;4992373;28;20922;-45
2022/02/08 06:18:30;;;;;;;4.50;1.83;;;8.20;51.90;;;;;;4979111;28;20466;-45
2022/02/08 06:20:56;;;;;;;7.77;2.47;;;8.40;51.80;;;;;;4979372;28;20448;-45
2022/02/08 06:23:22;;;;;;;4.73;1.50;;;8.50;52.00;;;;;;4990243;28;20453;-44
2022/02/08 06:25:48;;;;;;;5.10;1.53;;;8.70;51.90;;;;;;4987607;28;20996;-46
2022/02/08 06:28:14;;;;;;;5.73;1.93;;;8.70;51.30;;;;;;4984877;28;20200;-44
2022/02/08 06:30:39;;;;;;;2.90;1.40;;;8.90;51.30;;;;;;4991819;28;20200;-46
2022/02/08 06:33:06;;;;;;;6.67;1.87;;;8.90;51.30;;;;;;4986827;28;20454;-48
2022/02/08 06:35:33;;;;;;;5.00;1.40;;;8.90;51.00;;;;;;4984771;28;20208;-44
2022/02/08 06:38:00;;;;;;;3.87;2.37;;;8.90;50.80;;;;;;4985469;28;21530;-50
2022/02/08 06:40:27;;;;;;;5.90;1.60;;;8.90;51.10;;;;;;4990322;28;20460;-44
2022/02/08 06:42:57;;;;;;;4.20;2.10;;;8.90;51.00;;;;;;4990356;28;20442;-50
2022/02/08 06:45:23;;;;;;;3.13;2.10;;;8.90;51.00;;;;;;4986430;28;20849;-45
2022/02/08 06:47:51;;;;;;;8.17;2.00;;;8.80;50.90;;;;;;4980378;28;20474;-45
2022/02/08 06:50:18;;;;;;;14.37;2.23;;;8.80;51.00;;;;;;4986094;28;20198;-45
2022/02/08 06:52:44;;;;;;;4.23;1.90;;;9.00;51.00;;;;;;4994986;28;20495;-49
2022/02/08 06:55:10;;;;;;;11.37;1.80;;;9.10;50.70;;;;;;4991403;28;20512;-48
2022/02/08 06:57:53;;;;;;;5.00;1.60;;;9.10;50.20;;;;;;4990625;28;20572;-45
2022/02/08 07:00:29;;;;;;;7.07;2.00;;;9.20;50.50;;;;;;4998581;28;21002;-48
2022/02/08 07:02:55;;;;;;;7.53;1.90;;;9.30;50.50;;;;;;5005947;28;20443;-49
2022/02/08 07:05:21;;;;;;;3.60;1.93;;;9.40;50.30;;;;;;4994634;28;20485;-45
2022/02/08 07:07:46;;;;;;;12.67;1.77;;;9.40;50.00;;;;;;4993005;28;20456;-48
2022/02/08 07:10:12;;;;;;;3.03;1.50;;;9.60;50.00;;;;;;4994435;28;20202;-49
2022/02/08 07:12:40;;;;;;;4.13;1.77;;;9.70;49.60;;;;;;4999976;28;20194;-45
2022/02/08 07:15:10;;;;;;;6.63;2.00;;;9.70;49.30;;;;;;4994450;28;20442;-50
2022/02/08 07:17:36;;;;;;;3.60;2.07;;;9.60;49.40;;;;;;4984862;28;20437;-47
2022/02/08 07:20:02;;;;;;;2.30;1.30;;;9.70;49.10;;;;;;4991966;28;20434;-47
2022/02/08 07:22:29;;;;;;;4.73;2.10;;;9.60;49.10;;;;;;4992086;28;20209;-49
2022/02/08 07:24:55;;;;;;;6.90;2.00;;;9.70;49.20;;;;;;4993812;28;20936;-45
2022/02/08 07:27:21;;;;;;;6.33;1.83;;;9.90;49.10;;;;;;4984880;28;20533;-45
2022/02/08 07:29:51;;;;;;;4.87;1.77;;;10.00;47.90;;;;;;4988574;28;20512;-50
2022/02/08 07:32:18;;;;;;;7.43;2.53;;;9.70;48.60;;;;;;4991843;28;20278;-49
2022/02/08 07:34:53;;;;;;;7.90;2.33;;;9.80;48.90;;;;;;4983145;28;20537;-49
2022/02/08 07:37:33;;;;;;;7.03;1.57;;;9.50;49.40;;;;;;4997568;28;20961;-46
2022/02/08 07:40:04;;;;;;;4.00;1.57;;;9.60;50.10;;;;;;4992471;28;20447;-48
2022/02/08 07:42:29;;;;;;;6.30;1.90;;;9.70;50.50;;;;;;4986531;28;20448;-50
2022/02/08 07:44:55;;;;;;;9.77;2.00;;;9.90;50.80;;;;;;4994073;28;20843;-44
2022/02/08 07:47:20;;;;;;;3.40;1.87;;;10.00;49.90;;;;;;4992090;28;20709;-50
2022/02/08 07:49:46;;;;;;;3.50;2.00;;;10.10;49.50;;;;;;4984411;28;20816;-50
2022/02/08 07:52:12;;;;;;;7.40;1.77;;;9.90;50.20;;;;;;4984300;28;20306;-49
2022/02/08 07:54:39;;;;;;;6.80;1.50;;;10.00;50.50;;;;;;4990098;28;20207;-50
2022/02/08 07:57:05;;;;;;;5.00;1.80;;;10.20;50.80;;;;;;4981253;28;20282;-49
2022/02/08 07:59:31;;;;;;;6.60;2.53;;;10.20;50.00;;;;;;4985765;28;20535;-44
2022/02/08 08:01:56;;;;;;;4.23;2.30;;;10.30;49.60;;;;;;4990078;28;20525;-46
2022/02/08 08:04:22;;;;;;;7.73;1.43;;;10.30;49.60;;;;;;4985892;28;20229;-44
2022/02/08 08:06:48;;;;;;;6.67;1.83;;;10.40;50.00;;;;;;4986292;28;20275;-47
2022/02/08 08:09:13;;;;;;;10.90;1.50;;;10.50;49.90;;;;;;4985888;28;20187;-46
2022/02/08 08:11:42;;;;;;;6.63;1.83;;;10.40;48.60;;;;;;4992201;28;20208;-46
2022/02/08 08:14:10;;;;;;;3.77;1.70;;;10.50;49.00;;;;;;4991578;28;20199;-50
2022/02/08 08:19:36;;;;;;;6.60;2.27;;;10.30;48.40;;;;;;4991535;28;20466;-45
2022/02/08 08:22:03;;;;;;;3.83;1.67;;;10.30;48.70;;;;;;4986878;28;20573;-46
2022/02/08 08:24:30;;;;;;;5.73;2.20;;;10.40;49.30;;;;;;4990702;28;20485;-48
2022/02/08 08:26:55;;;;;;;5.73;1.80;;;10.60;49.30;;;;;;4992455;28;20600;-47
2022/02/08 08:29:21;;;;;;;4.30;2.13;;;10.70;49.10;;;;;;4981145;28;20533;-47
2022/02/08 08:31:46;;;;;;;3.50;1.63;;;10.80;48.90;;;;;;4984208;28;20195;-48
2022/02/08 08:34:13;;;;;;;9.27;3.47;;;10.80;48.60;;;;;;4990812;28;20209;-47
2022/02/08 08:36:39;;;;;;;5.33;2.50;;;10.80;48.70;;;;;;4988479;28;20222;-45
2022/02/08 08:39:07;;;;;;;4.80;2.23;;;10.90;48.60;;;;;;4990010;28;20434;-48
2022/02/08 08:41:43;;;;;;;7.83;2.10;;;11.00;48.70;;;;;;4986490;28;20466;-45
2022/02/08 08:52:13;;;;;;;5.23;2.00;;;11.10;48.40;;;;;;4942327;28;20508;-47
2022/02/08 08:54:39;;;;;;;5.60;1.90;;;10.80;48.00;;;;;;4984529;28;20435;-49
2022/02/08 08:57:05;;;;;;;6.00;1.50;;;10.70;49.40;;;;;;4985070;28;20191;-47
2022/02/08 08:59:30;;;;;;;2.40;2.03;;;10.90;48.90;;;;;;4993077;28;20200;-50
2022/02/08 09:01:56;;;;;;;7.50;2.00;;;11.10;48.70;;;;;;4986914;28;20489;-48
2022/02/08 09:04:23;;;;;;;5.47;2.70;;;11.20;48.80;;;;;;4984741;28;20341;-50
2022/02/08 09:06:50;;;;;;;7.70;2.30;;;11.40;48.60;;;;;;4989137;28;20198;-46
2022/02/08 09:09:19;;;;;;;3.23;2.77;;;11.40;48.30;;;;;;4989394;28;20442;-45
2022/02/08 09:14:12;;;;;;;3.70;1.20;;;11.60;48.50;;;;;;4989332;28;20502;-48
2022/02/08 09:27:58;;;;;;;3.90;1.90;;;11.50;47.60;;;;;;4989430;28;20282;-47
2022/02/08 09:29:55;;;;;;;5.83;1.80;;;11.40;47.10;;;;;;4988928;28;20979;-46
2022/02/08 09:32:44;;;;;;;5.03;1.73;;;11.20;47.60;;;;;;4990788;28;20442;-47
2022/02/08 09:35:08;;;;;;;2.60;1.57;;;11.30;48.00;;;;;;4985990;28;20443;-47
2022/02/08 09:37:34;;;;;;;6.37;2.00;;;11.30;47.50;;;;;;4988854;28;20441;-49
2022/02/08 09:40:01;;;;;;;5.20;1.90;;;11.10;47.40;;;;;;4990324;28;20461;-47
2022/02/08 09:42:27;;;;;;;8.10;2.50;;;11.30;47.70;;;;;;4989787;28;20882;-46
2022/02/08 09:44:56;;;;;;;3.67;1.90;;;11.50;47.10;;;;;;4986255;28;20584;-49
2022/02/08 09:47:33;;;;;;;6.73;2.27;;;11.70;46.90;;;;;;4987940;28;20488;-46
2022/02/08 09:50:13;;;;;;;7.90;1.80;;;12.00;46.60;;;;;;4989553;28;20429;-46
2022/02/08 09:52:47;;;;;;;8.63;1.93;;;12.40;46.30;;;;;;4990127;28;20430;-46
2022/02/08 09:55:14;;;;;;;6.10;2.10;;;12.60;45.50;;;;;;4988856;28;20451;-46
2022/02/08 09:57:40;;;;;;;5.20;2.23;;;12.80;45.20;;;;;;4985183;28;20453;-48
2022/02/08 10:00:06;;;;;;;6.87;1.80;;;12.90;44.70;;;;;;4991092;28;20817;-47
2022/02/08 10:02:32;;;;;;;8.27;2.70;;;13.20;44.50;;;;;;4989963;28;20929;-46
2022/02/08 10:05:02;;;;;;;3.93;2.13;;;13.40;44.30;;;;;;4989407;28;20492;-45
2022/02/08 10:07:33;;;;;;;3.57;1.57;;;13.40;44.50;;;;;;4987628;28;20187;-49
2022/02/08 10:09:59;;;;;;;5.80;2.10;;;13.60;44.10;;;;;;4990378;28;20441;-47
2022/02/08 10:12:30;;;;;;;3.67;2.07;;;13.60;43.60;;;;;;4985723;28;20457;-48
2022/02/08 10:22:43;;;;;;;6.47;2.30;;;13.60;44.60;;;;;;4989938;28;21051;-46
2022/02/08 10:25:15;;;;;;;4.37;1.93;;;14.00;43.90;;;;;;4990835;28;20580;-48
2022/02/08 10:27:51;;;;;;;8.03;2.00;;;14.20;43.80;;;;;;4990184;28;20442;-49
2022/02/08 10:30:43;;;;;;;6.50;2.70;;;14.50;43.20;;;;;;4983439;28;20442;-46
2022/02/08 10:38:47;;;;;;;5.03;1.83;;;13.90;43.00;;;;;;4989844;28;21002;-46
2022/02/08 10:41:19;;;;;;;5.30;1.80;;;13.90;44.20;;;;;;4984294;28;20449;-46
2022/02/08 10:44:06;;;;;;;6.13;1.87;;;14.00;44.40;;;;;;4989567;28;20501;-47
2022/02/08 10:46:33;;;;;;;6.80;1.60;;;13.90;44.60;;;;;;4987065;28;20457;-47
2022/02/08 10:49:14;;;;;;;5.63;2.20;;;13.90;44.60;;;;;;4988285;28;20474;-49
2022/02/08 10:51:49;;;;;;;8.70;1.60;;;13.60;44.10;;;;;;4988277;28;20465;-46
2022/02/08 10:54:29;;;;;;;5.87;1.80;;;13.50;44.80;;;;;;4981309;28;20449;-44
2022/02/08 10:57:02;;;;;;;5.87;1.77;;;13.50;45.00;;;;;;4988540;28;20437;-44
2022/02/08 10:59:55;;;;;;;5.83;1.73;;;13.50;45.20;;;;;;4985692;28;20448;-47
2022/02/08 11:02:50;;;;;;;5.77;2.43;;;13.60;45.60;;;;;;4989249;28;20418;-44
2022/02/08 11:06:02;;;;;;;5.73;1.90;;;13.80;45.70;;;;;;4984389;28;20580;-44
2022/02/08 11:08:25;;;;;;;6.57;1.90;;;14.30;45.00;;;;;;4981956;28;20438;-44
2022/02/08 11:11:05;;;;;;;4.40;1.40;;;14.60;44.70;;;;;;4980883;28;20476;-52
2022/02/08 11:13:45;;;;;;;5.17;1.83;;;14.60;44.50;;;;;;4989187;28;20803;-45
2022/02/08 11:16:30;;;;;;;4.73;2.00;;;14.40;44.20;;;;;;4993167;28;20441;-46
2022/02/08 11:21:59;;;;;;;8.00;1.80;;;14.60;44.60;;;;;;4983516;28;20890;-45
2022/02/08 11:24:39;;;;;;;3.70;1.30;;;14.50;44.40;;;;;;4993430;28;20489;-46
2022/02/08 11:27:09;;;;;;;3.20;1.33;;;14.10;45.30;;;;;;4986044;28;20449;-45
2022/02/08 11:29:44;;;;;;;6.30;1.53;;;13.90;45.40;;;;;;4990746;28;20437;-47
2022/02/08 12:04:53;;;;;;;7.60;1.50;;;14.30;46.10;;;;;;4989579;28;20867;-47
2022/02/08 12:07:19;;;;;;;4.03;1.93;;;14.20;46.60;;;;;;4991350;28;20437;-45
2022/02/08 12:12:43;;;;;;;7.27;1.67;;;14.30;46.50;;;;;;4991774;28;21789;-45
2022/02/08 12:56:10;;;;;;;3.90;1.60;;;14.20;52.30;;;;;;4991299;28;20448;-46
2022/02/08 13:15:02;;;;;;;3.70;0.97;;;14.40;51.80;;;;;;4985054;28;20451;-48
2022/02/08 14:08:25;;;;;;;2.73;1.10;;;14.00;53.10;;;;;;4990771;28;20496;-45
2022/02/08 14:11:19;;;;;;;2.07;0.77;;;13.90;53.00;;;;;;4987630;28;20879;-45
2022/02/08 14:17:09;;;;;;;1.27;0.90;;;13.80;53.50;;;;;;4977837;28;20939;-47
2022/02/08 14:20:27;;;;;;;2.70;0.93;;;13.90;53.40;;;;;;4989662;28;20429;-50
2022/02/08 14:25:19;;;;;;;3.67;1.20;;;14.10;53.20;;;;;;4977215;28;20486;-47
2022/02/08 14:30:41;;;;;;;2.07;1.00;;;14.00;53.80;;;;;;4986853;28;20979;-47
2022/02/08 14:59:01;;;;;;;2.90;1.43;;;13.50;54.60;;;;;;4987984;28;20495;-47
2022/02/08 15:11:09;;;;;;;1.97;0.90;;;13.70;54.10;;;;;;4961133;28;20265;-46
2022/02/08 15:13:36;;;;;;;1.00;0.90;;;14.00;54.10;;;;;;4988768;28;20446;-48
2022/02/08 15:16:21;;;;;;;1.17;1.07;;;13.90;53.70;;;;;;4987624;28;20450;-46
2022/02/08 15:18:46;;;;;;;1.47;1.27;;;14.10;53.50;;;;;;4986347;28;20444;-48
2022/02/08 15:21:19;;;;;;;1.67;0.93;;;14.00;53.10;;;;;;4991857;28;20556;-51
2022/02/08 15:23:45;;;;;;;1.90;1.33;;;14.00;53.50;;;;;;4983821;28;20442;-50
2022/02/08 15:26:10;;;;;;;1.17;1.00;;;14.00;53.40;;;;;;4983463;28;20481;-51
2022/02/08 15:28:36;;;;;;;2.37;1.10;;;14.10;53.30;;;;;;4986776;28;20218;-48
2022/02/08 15:31:02;;;;;;;5.43;1.20;;;14.30;53.10;;;;;;4989050;28;20213;-47
2022/02/08 15:33:28;;;;;;;2.70;1.13;;;14.20;52.90;;;;;;4991623;28;20219;-50
2022/02/08 15:35:54;;;;;;;1.83;1.23;;;13.90;53.30;;;;;;4989438;28;20464;-49
2022/02/08 15:38:25;;;;;;;2.60;1.00;;;13.90;53.70;;;;;;4992387;28;20187;-48
2022/02/08 15:40:51;;;;;;;2.47;1.10;;;13.70;53.50;;;;;;4998103;28;20858;-47
2022/02/08 15:43:17;;;;;;;2.17;1.10;;;13.70;53.80;;;;;;4991620;28;20489;-47
2022/02/08 15:46:00;;;;;;;3.80;1.50;;;13.70;53.80;;;;;;4995160;28;20227;-48
2022/02/08 15:48:26;;;;;;;3.70;1.30;;;13.60;53.80;;;;;;4992526;28;20262;-49
2022/02/08 15:51:13;;;;;;;3.03;1.30;;;13.70;54.00;;;;;;4990699;28;20936;-53
2022/02/08 15:56:24;;;;;;;5.90;3.50;;;13.80;53.80;;;;;;4993229;28;20435;-49
2022/02/08 16:06:56;;;;;;;21.30;8.33;;;14.10;53.40;;;;;;4984593;28;20269;-50
2022/02/08 16:30:30;;;;;;;1.60;1.20;;;13.20;57.50;;;;;;4992219;28;20434;-47
2022/02/08 16:56:56;;;;;;;4.73;1.30;;;14.00;55.30;;;;;;4991264;28;20492;-50
2022/02/08 16:59:32;;;;;;;2.40;1.40;;;14.00;55.10;;;;;;4992709;28;20441;-46
2022/02/08 17:02:01;;;;;;;1.50;1.00;;;14.00;55.20;;;;;;4986715;28;20437;-50
2022/02/08 17:04:29;;;;;;;2.60;1.80;;;14.10;55.30;;;;;;4985053;28;20493;-46
2022/02/08 17:07:15;;;;;;;2.70;1.23;;;14.00;55.20;;;;;;4985769;28;20419;-46
2022/02/08 17:09:58;;;;;;;34.30;28.60;;;13.90;55.20;;;;;;4986896;28;20973;-47
2022/02/08 17:13:05;;;;;;;14.47;11.07;;;13.90;55.30;;;;;;4997348;28;20449;-46
2022/02/08 17:46:19;;;;;;;18.43;10.60;;;14.50;54.00;;;;;;4987135;28;20627;-46
2022/02/08 17:48:10;;;;;;;9.30;5.23;;;14.40;54.30;;;;;;4978659;28;20473;-46
2022/02/08 17:50:36;;;;;;;9.30;4.43;;;14.40;54.30;;;;;;4988398;28;20445;-47
2022/02/08 17:53:03;;;;;;;15.43;13.23;;;14.40;54.30;;;;;;4989289;28;20222;-46
2022/02/08 17:55:29;;;;;;;11.67;9.47;;;14.40;54.40;;;;;;4986941;28;20538;-47
2022/02/08 17:57:55;;;;;;;11.43;8.23;;;14.40;54.20;;;;;;4987682;28;20434;-48
2022/02/08 18:00:21;;;;;;;7.70;4.80;;;14.50;54.10;;;;;;4988948;28;20426;-46
2022/02/08 18:02:47;;;;;;;5.37;3.73;;;14.50;54.10;;;;;;4984421;28;20438;-46
2022/02/08 18:05:15;;;;;;;14.50;4.03;;;14.50;54.00;;;;;;4982999;28;20231;-48
2022/02/08 18:07:41;;;;;;;6.57;3.47;;;14.50;54.00;;;;;;4986968;28;20803;-46
2022/02/08 18:10:08;;;;;;;4.30;2.80;;;14.50;54.00;;;;;;4986762;28;21152;-47
2022/02/08 18:12:38;;;;;;;5.07;3.77;;;14.50;54.10;;;;;;5002963;28;20481;-47
2022/02/08 18:15:09;;;;;;;9.87;8.50;;;14.50;54.00;;;;;;4989368;28;20441;-46
2022/02/08 18:17:40;;;;;;;7.50;6.07;;;14.50;54.20;;;;;;4987629;28;20453;-46
2022/02/08 18:20:56;;;;;;;6.80;2.70;;;14.40;54.20;;;;;;4992315;28;20925;-46
2022/02/08 18:54:49;;;;;;;3.33;2.80;;;14.30;54.70;;;;;;4954825;28;20434;-46
2022/02/08 19:15:09;;;;;;;7.20;3.40;;;13.80;55.20;;;;;;4965186;28;20439;-45
2022/02/08 19:21:50;;;;;;;4.20;2.93;;;13.80;55.20;;;;;;4954304;28;20196;-44
2022/02/08 19:24:19;;;;;;;4.93;3.37;;;13.90;55.10;;;;;;4956645;28;20207;-45
2022/02/08 19:26:47;;;;;;;4.83;2.63;;;13.90;55.00;;;;;;4956354;28;20442;-44
2022/02/08 19:29:14;;;;;;;4.57;2.40;;;13.90;55.00;;;;;;4955036;28;20561;-43
2022/02/08 19:31:41;;;;;;;6.77;2.33;;;13.80;55.20;;;;;;4954712;28;20494;-43
2022/02/08 19:34:07;;;;;;;5.23;2.50;;;13.80;55.10;;;;;;4957395;28;20988;-44
2022/02/08 19:36:33;;;;;;;4.30;2.20;;;13.60;55.40;;;;;;4953738;28;21111;-44
2022/02/08 19:39:02;;;;;;;5.90;2.27;;;13.70;55.50;;;;;;4952531;28;20492;-44
2022/02/08 19:41:29;;;;;;;3.80;1.97;;;13.50;55.90;;;;;;4955636;28;20251;-43
2022/02/08 19:43:55;;;;;;;7.70;3.80;;;13.30;57.00;;;;;;4952384;28;20451;-48
2022/02/08 19:46:21;;;;;;;4.20;2.10;;;13.30;57.60;;;;;;4953770;28;20484;-46
2022/02/08 19:48:46;;;;;;;5.97;2.30;;;13.10;58.10;;;;;;4979136;28;20925;-43
2022/02/08 19:51:12;;;;;;;7.27;3.10;;;13.00;58.50;;;;;;4990107;28;20199;-45
2022/02/08 19:53:38;;;;;;;4.10;2.43;;;13.10;58.30;;;;;;4987420;28;20192;-50
2022/02/08 19:58:33;;;;;;;6.43;2.20;;;13.30;58.00;;;;;;4986794;28;20942;-49
2022/02/08 20:01:07;;;;;;;6.93;2.77;;;13.30;58.00;;;;;;4991267;28;20433;-46
2022/02/08 20:03:41;;;;;;;10.03;2.83;;;13.30;58.00;;;;;;4987036;28;20573;-46
2022/02/08 20:06:08;;;;;;;7.13;3.30;;;13.30;58.10;;;;;;4983258;28;20521;-45
2022/02/08 20:08:34;;;;;;;5.50;3.27;;;13.40;58.50;;;;;;4989761;28;20438;-47
2022/02/08 20:11:00;;;;;;;6.30;3.60;;;13.40;57.80;;;;;;4991609;28;20445;-46
2022/02/08 20:13:28;;;;;;;5.10;3.50;;;13.50;57.70;;;;;;4990393;28;20446;-48
2022/02/08 20:15:57;;;;;;;6.63;4.40;;;13.50;57.70;;;;;;4989790;28;20314;-46
2022/02/08 20:18:23;;;;;;;9.40;5.23;;;13.40;57.90;;;;;;4988368;28;20786;-46
2022/02/08 20:20:50;;;;;;;9.40;3.40;;;13.40;57.90;;;;;;4991788;28;20447;-47
2022/02/08 20:23:18;;;;;;;6.00;2.93;;;13.20;58.10;;;;;;4988751;28;20438;-47
2022/02/08 20:25:49;;;;;;;4.07;3.03;;;13.20;58.40;;;;;;4982634;28;20493;-48
2022/02/08 20:28:35;;;;;;;5.70;3.00;;;13.10;58.80;;;;;;4990443;28;20533;-51
2022/02/08 20:31:01;;;;;;;7.20;3.50;;;13.10;59.20;;;;;;4991650;28;20802;-47
2022/02/08 20:33:26;;;;;;;5.60;3.40;;;13.00;59.90;;;;;;4989416;28;20437;-46
2022/02/08 20:35:52;;;;;;;8.20;3.57;;;13.20;59.80;;;;;;4991433;28;20210;-46
2022/02/08 20:38:18;;;;;;;4.27;3.10;;;13.30;59.70;;;;;;4982116;28;20190;-48
2022/02/08 20:40:44;;;;;;;5.80;2.80;;;13.40;59.70;;;;;;4975918;28;20192;-51
2022/02/08 20:43:10;;;;;;;4.27;3.90;;;13.40;60.00;;;;;;4996440;28;20205;-49
2022/02/08 20:45:38;;;;;;;4.47;3.70;;;13.40;59.90;;;;;;4986603;28;20493;-48
2022/02/08 20:48:05;;;;;;;4.10;3.23;;;13.50;60.00;;;;;;4999843;28;20469;-46
2022/02/08 20:50:31;;;;;;;6.50;3.80;;;13.60;59.90;;;;;;4990051;28;20944;-47
2022/02/08 20:53:02;;;;;;;3.70;2.90;;;13.50;60.10;;;;;;4983701;28;20430;-50
2022/02/08 20:55:39;;;;;;;4.23;3.20;;;13.50;60.50;;;;;;4991843;28;20198;-47